createdAt,value
2022-08-25T00:02:13.074Z,2.83
2022-08-25T00:04:40.326Z,2.72
2022-08-25T00:07:07.803Z,2.60
2022-08-25T00:09:35.690Z,2.60
2022-08-25T00:12:03.178Z,2.83
2022-08-25T00:14:35.429Z,2.58
2022-08-25T00:17:04.849Z,2.90
2022-08-25T00:19:35.222Z,3.22
2022-08-25T00:22:03.101Z,2.53
2022-08-25T00:24:30.567Z,2.90
2022-08-25T00:26:59.141Z,2.72
2022-08-25T00:29:26.407Z,2.95
2022-08-25T00:31:54.895Z,2.90
2022-08-25T00:34:26.519Z,2.60
2022-08-25T00:36:53.815Z,2.53
2022-08-25T00:39:22.145Z,2.85
2022-08-25T00:41:51.994Z,2.60
2022-08-25T00:44:19.250Z,2.45
2022-08-25T00:46:56.196Z,2.50
2022-08-25T00:49:33.665Z,2.80
2022-08-25T00:52:09.281Z,3.10
2022-08-25T00:54:44.725Z,2.55
2022-08-25T00:57:13.479Z,3.10
2022-08-25T00:59:41.188Z,2.40
2022-08-25T01:02:10.130Z,2.70
2022-08-25T01:04:37.680Z,2.33
2022-08-25T01:07:05.032Z,2.83
2022-08-25T01:09:33.051Z,2.90
2022-08-25T01:12:01.289Z,2.28
2022-08-25T01:14:31.470Z,2.53
2022-08-25T01:16:59.320Z,2.85
2022-08-25T01:19:28.831Z,2.80
2022-08-25T01:21:55.819Z,3.08
2022-08-25T01:24:40.751Z,2.65
2022-08-25T01:27:07.947Z,2.50
2022-08-25T01:29:35.973Z,2.75
2022-08-25T01:32:06.867Z,2.47
2022-08-25T01:34:36.781Z,3.50
2022-08-25T01:37:04.236Z,2.88
2022-08-25T01:39:33.954Z,2.47
2022-08-25T01:42:06.444Z,3.13
2022-08-25T01:44:37.892Z,2.50
2022-08-25T01:47:06.021Z,2.95
2022-08-25T01:49:32.868Z,2.70
2022-08-25T01:52:24.710Z,2.80
2022-08-25T01:54:51.981Z,2.90
2022-08-25T01:57:18.541Z,2.92
2022-08-25T01:59:45.993Z,2.58
2022-08-25T02:02:12.662Z,3.00
2022-08-25T02:04:39.583Z,2.70
2022-08-25T02:07:10.897Z,3.30
2022-08-25T02:09:38.358Z,2.67
2022-08-25T02:12:05.220Z,2.85
2022-08-25T02:14:32.012Z,2.97
2022-08-25T02:16:58.607Z,2.63
2022-08-25T02:19:26.086Z,2.90
2022-08-25T02:21:53.328Z,3.00
2022-08-25T02:24:20.138Z,3.10
2022-08-25T02:26:46.791Z,3.08
2022-08-25T02:29:13.865Z,3.53
2022-08-25T02:31:40.586Z,2.50
2022-08-25T02:34:09.306Z,2.70
2022-08-25T02:36:37.288Z,2.80
2022-08-25T02:39:06.953Z,2.97
2022-08-25T02:41:33.995Z,2.70
2022-08-25T02:44:01.932Z,2.88
2022-08-25T02:46:29.625Z,2.90
2022-08-25T02:48:56.589Z,3.00
2022-08-25T02:51:25.493Z,2.58
2022-08-25T02:53:52.254Z,2.83
2022-08-25T02:56:20.067Z,2.97
2022-08-25T02:58:47.370Z,2.70
2022-08-25T03:01:15.169Z,2.67
2022-08-25T03:03:44.343Z,2.90
2022-08-25T03:06:13.812Z,2.72
2022-08-25T03:08:42.087Z,2.90
2022-08-25T03:11:09.438Z,2.80
2022-08-25T03:13:36.600Z,2.60
2022-08-25T03:16:05.353Z,2.92
2022-08-25T03:18:38.992Z,2.85
2022-08-25T03:21:05.760Z,2.70
2022-08-25T03:23:32.666Z,3.00
2022-08-25T03:26:17.681Z,3.15
2022-08-25T03:28:44.347Z,3.28
2022-08-25T03:31:10.959Z,2.80
2022-08-25T03:33:38.364Z,3.35
2022-08-25T03:36:06.259Z,2.88
2022-08-25T03:38:33.067Z,2.75
2022-08-25T03:40:59.840Z,2.85
2022-08-25T03:43:26.410Z,2.50
2022-08-25T03:45:53.047Z,2.88
2022-08-25T03:48:19.645Z,3.00
2022-08-25T03:50:52.241Z,3.15
2022-08-25T03:53:19.919Z,3.00
2022-08-25T03:55:47.083Z,2.53
2022-08-25T03:58:14.225Z,3.13
2022-08-25T04:00:40.863Z,2.55
2022-08-25T04:03:07.668Z,3.00
2022-08-25T04:05:34.218Z,3.72
2022-08-25T04:08:01.742Z,3.10
2022-08-25T04:10:28.955Z,3.42
2022-08-25T04:12:56.715Z,3.00
2022-08-25T04:15:24.885Z,3.30
2022-08-25T04:17:55.752Z,3.15
2022-08-25T04:20:22.346Z,3.30
2022-08-25T04:22:48.926Z,3.30
2022-08-25T04:25:15.527Z,3.10
2022-08-25T04:27:42.410Z,2.80
2022-08-25T04:30:10.795Z,2.97
2022-08-25T04:32:37.563Z,2.58
2022-08-25T04:35:09.247Z,2.78
2022-08-25T04:37:39.387Z,2.85
2022-08-25T04:40:07.177Z,3.05
2022-08-25T04:42:34.858Z,4.05
2022-08-25T04:45:02.014Z,3.38
2022-08-25T04:47:28.759Z,3.20
2022-08-25T04:49:55.761Z,4.00
2022-08-25T04:52:22.673Z,3.50
2022-08-25T04:54:49.208Z,2.38
2022-08-25T04:57:15.765Z,2.95
2022-08-25T04:59:42.345Z,3.25
2022-08-25T05:02:09.114Z,3.50
2022-08-25T05:04:36.850Z,3.30
2022-08-25T05:07:04.740Z,3.15
2022-08-25T05:09:32.577Z,3.30
2022-08-25T05:12:01.240Z,3.08
2022-08-25T05:14:28.823Z,3.20
2022-08-25T05:16:56.363Z,3.80
2022-08-25T05:19:24.079Z,3.40
2022-08-25T05:21:51.089Z,3.78
2022-08-25T05:24:18.801Z,3.55
2022-08-25T05:26:45.918Z,3.15
2022-08-25T05:29:12.624Z,3.72
2022-08-25T05:31:43.153Z,3.35
2022-08-25T05:36:43.080Z,3.40
2022-08-25T05:39:10.675Z,2.97
2022-08-25T05:41:37.750Z,3.30
2022-08-25T05:44:04.909Z,3.00
2022-08-25T05:46:31.744Z,3.63
2022-08-25T05:48:59.018Z,3.95
2022-08-25T05:51:26.254Z,3.92
2022-08-25T05:53:52.913Z,4.05
2022-08-25T05:56:20.413Z,4.15
2022-08-25T05:58:47.439Z,3.90
2022-08-25T06:01:43.405Z,4.05
2022-08-25T06:04:12.415Z,4.07
2022-08-25T06:06:39.487Z,3.83
2022-08-25T06:09:08.568Z,4.05
2022-08-25T06:11:36.534Z,3.83
2022-08-25T06:14:03.570Z,3.50
2022-08-25T06:16:31.072Z,3.55
2022-08-25T06:18:57.769Z,3.55
2022-08-25T06:21:24.937Z,3.88
2022-08-25T06:23:51.457Z,3.63
2022-08-25T06:26:21.229Z,3.92
2022-08-25T06:28:49.445Z,3.38
2022-08-25T06:31:16.201Z,3.80
2022-08-25T06:33:44.089Z,4.20
2022-08-25T06:36:10.716Z,3.60
2022-08-25T06:38:37.317Z,3.58
2022-08-25T06:41:10.515Z,3.65
2022-08-25T06:43:37.174Z,3.47
2022-08-25T06:46:09.952Z,3.75
2022-08-25T06:48:37.687Z,3.67
2022-08-25T06:55:16.799Z,4.13
2022-08-25T06:57:43.332Z,3.50
2022-08-25T07:00:11.240Z,3.88
2022-08-25T07:02:39.221Z,3.63
2022-08-25T07:05:08.220Z,4.07
2022-08-25T07:10:11.232Z,3.92
2022-08-25T07:12:37.903Z,3.58
2022-08-25T07:15:19.508Z,3.70
2022-08-25T07:17:47.449Z,3.90
2022-08-25T07:20:16.911Z,4.10
2022-08-25T07:22:45.993Z,4.07
2022-08-25T07:25:12.615Z,3.95
2022-08-25T07:27:39.632Z,3.97
2022-08-25T07:30:09.290Z,3.90
2022-08-25T07:32:38.245Z,3.75
2022-08-25T07:35:15.300Z,3.67
2022-08-25T07:37:49.424Z,3.85
2022-08-25T07:40:30.266Z,3.33
2022-08-25T07:42:58.969Z,3.13
2022-08-25T07:45:31.952Z,3.85
2022-08-25T07:48:05.698Z,3.67
2022-08-25T07:50:32.700Z,3.95
2022-08-25T07:53:00.133Z,4.20
2022-08-25T07:55:28.399Z,4.57
2022-08-25T07:57:57.382Z,4.72
2022-08-25T08:00:27.617Z,4.43
2022-08-25T08:02:55.067Z,4.20
2022-08-25T08:05:23.824Z,4.47
2022-08-25T08:07:51.565Z,4.63
2022-08-25T08:10:53.997Z,4.28
2022-08-25T08:13:07.368Z,3.60
2022-08-25T08:15:34.931Z,4.60
2022-08-25T08:18:01.969Z,4.07
2022-08-25T08:20:42.617Z,4.63
2022-08-25T08:23:10.650Z,4.35
2022-08-25T08:25:37.268Z,4.57
2022-08-25T08:28:03.816Z,4.35
2022-08-25T08:30:34.118Z,4.22
2022-08-25T08:33:11.399Z,3.72
2022-08-25T08:35:41.984Z,3.97
2022-08-25T08:38:14.678Z,4.03
2022-08-25T08:41:23.340Z,4.28
2022-08-25T08:44:16.060Z,4.18
2022-08-25T08:46:57.500Z,4.25
2022-08-25T08:49:34.137Z,4.30
2022-08-25T08:52:03.130Z,4.53
2022-08-25T08:54:36.253Z,4.03
2022-08-25T08:57:12.756Z,4.18
2022-08-25T08:59:48.999Z,4.32
2022-08-25T09:02:39.104Z,4.88
2022-08-25T09:05:19.183Z,4.20
2022-08-25T09:07:54.773Z,4.30
2022-08-25T09:10:25.455Z,3.72
2022-08-25T09:13:12.811Z,3.90
2022-08-25T09:16:06.990Z,3.60
2022-08-25T09:18:50.986Z,4.13
2022-08-25T09:21:49.138Z,4.03
2022-08-25T09:24:30.954Z,4.10
2022-08-25T09:27:14.942Z,4.05
2022-08-25T09:30:00.284Z,4.35
2022-08-25T09:33:02.109Z,4.15
2022-08-25T09:35:32.828Z,3.75
2022-08-25T09:38:05.365Z,4.05
2022-08-25T09:40:35.650Z,3.83
2022-08-25T09:43:05.638Z,3.27
2022-08-25T09:45:43.604Z,4.13
2022-08-25T09:48:24.205Z,3.85
2022-08-25T09:50:57.279Z,3.85
2022-08-25T09:53:26.760Z,3.85
2022-08-25T09:55:59.969Z,4.25
2022-08-25T09:58:27.393Z,3.40
2022-08-25T10:01:11.379Z,3.30
2022-08-25T10:03:38.106Z,3.60
2022-08-25T10:06:14.775Z,3.25
2022-08-25T10:09:06.824Z,3.95
2022-08-25T10:11:43.520Z,2.80
2022-08-25T10:14:19.028Z,3.28
2022-08-25T10:16:48.723Z,3.20
2022-08-25T10:19:21.343Z,3.60
2022-08-25T10:22:01.895Z,3.08
2022-08-25T10:24:28.458Z,3.40
2022-08-25T10:27:01.779Z,2.85
2022-08-25T10:29:28.274Z,3.22
2022-08-25T10:31:59.356Z,3.00
2022-08-25T10:34:44.634Z,3.25
2022-08-25T10:37:23.468Z,3.17
2022-08-25T10:39:58.751Z,3.40
2022-08-25T10:42:47.336Z,2.80
2022-08-25T10:45:32.300Z,3.30
2022-08-25T10:48:05.150Z,3.67
2022-08-25T10:50:45.664Z,3.13
2022-08-25T10:53:21.433Z,3.20
2022-08-25T10:56:04.560Z,3.38
2022-08-25T10:59:11.682Z,3.22
2022-08-25T11:01:54.668Z,3.28
2022-08-25T11:05:29.157Z,3.35
2022-08-25T11:08:11.625Z,3.17
2022-08-25T11:10:47.358Z,3.28
2022-08-25T11:13:38.782Z,2.83
2022-08-25T11:16:18.733Z,3.20
2022-08-25T11:18:55.915Z,3.70
2022-08-25T11:21:44.445Z,3.20
2022-08-25T11:24:41.158Z,3.67
2022-08-25T11:27:15.743Z,3.13
2022-08-25T11:29:53.488Z,3.20
2022-08-25T11:32:23.555Z,3.25
2022-08-25T11:34:50.802Z,3.10
2022-08-25T11:37:29.737Z,3.15
2022-08-25T11:40:26.684Z,3.40
2022-08-25T11:43:08.808Z,3.33
2022-08-25T11:45:54.469Z,3.28
2022-08-25T11:48:37.477Z,3.60
2022-08-25T11:51:22.892Z,3.05
2022-08-25T11:54:16.445Z,3.67
2022-08-25T11:56:50.559Z,3.50
2022-08-25T11:59:52.379Z,3.47
2022-08-25T12:02:34.771Z,3.10
2022-08-25T12:05:10.238Z,2.90
2022-08-25T12:08:12.141Z,3.20
2022-08-25T12:10:56.953Z,2.65
2022-08-25T12:13:43.038Z,3.65
2022-08-25T12:16:35.814Z,2.78
2022-08-25T12:19:24.245Z,2.92
2022-08-25T12:21:52.558Z,3.10
2022-08-25T12:24:47.258Z,2.75
2022-08-25T12:27:24.687Z,3.15
2022-08-25T12:30:18.491Z,3.05
2022-08-25T12:32:56.608Z,3.17
2022-08-25T12:35:23.073Z,3.28
2022-08-25T12:38:03.230Z,2.90
2022-08-25T12:40:53.289Z,2.70
2022-08-25T12:43:19.892Z,2.55
2022-08-25T12:45:48.725Z,2.85
2022-08-25T12:48:35.717Z,2.75
2022-08-25T12:51:10.189Z,2.70
2022-08-25T12:54:15.893Z,2.80
2022-08-25T12:56:50.594Z,2.97
2022-08-25T12:59:35.827Z,3.03
2022-08-25T13:02:23.947Z,3.33
2022-08-25T13:05:12.441Z,3.47
2022-08-25T13:07:57.104Z,3.20
2022-08-25T13:10:32.797Z,3.60
2022-08-25T13:13:10.317Z,3.38
2022-08-25T13:15:41.667Z,2.65
2022-08-25T13:18:22.509Z,2.90
2022-08-25T13:20:53.482Z,2.80
2022-08-25T13:23:29.191Z,3.30
2022-08-25T13:25:58.332Z,3.08
2022-08-25T13:28:33.444Z,2.80
2022-08-25T13:31:15.909Z,2.97
2022-08-25T13:33:57.464Z,2.75
2022-08-25T13:36:47.118Z,3.08
2022-08-25T13:39:45.519Z,2.85
2022-08-25T13:42:16.066Z,3.35
2022-08-25T13:44:52.385Z,3.00
2022-08-25T13:47:45.243Z,3.15
2022-08-25T13:50:28.351Z,2.97
2022-08-25T13:53:00.570Z,3.13
2022-08-25T13:55:51.621Z,3.03
2022-08-25T13:58:45.011Z,3.72
2022-08-25T14:01:47.737Z,3.38
2022-08-25T14:04:27.574Z,3.03
2022-08-25T14:07:15.004Z,3.72
2022-08-25T14:10:10.282Z,3.35
2022-08-25T14:12:46.103Z,3.40
2022-08-25T14:15:18.436Z,3.08
2022-08-25T14:17:48.595Z,3.10
2022-08-25T14:20:28.900Z,3.08
2022-08-25T14:23:10.242Z,3.08
2022-08-25T14:25:37.271Z,3.75
2022-08-25T14:28:14.234Z,3.60
2022-08-25T14:30:46.629Z,3.30
2022-08-25T14:33:15.317Z,3.28
2022-08-25T14:35:45.365Z,3.00
2022-08-25T14:38:14.920Z,3.60
2022-08-25T14:40:41.895Z,3.10
2022-08-25T14:43:09.555Z,3.13
2022-08-25T14:45:39.930Z,3.80
2022-08-25T14:48:16.132Z,3.05
2022-08-25T14:50:44.052Z,3.33
2022-08-25T14:53:11.786Z,3.40
2022-08-25T14:55:38.864Z,3.30
2022-08-25T14:58:09.380Z,3.63
2022-08-25T15:00:42.131Z,3.13
2022-08-25T15:03:13.717Z,3.50
2022-08-25T15:05:41.121Z,3.65
2022-08-25T15:08:32.454Z,3.45
2022-08-25T15:10:59.815Z,2.97
2022-08-25T15:13:27.418Z,3.60
2022-08-25T15:15:54.972Z,3.78
2022-08-25T15:18:25.818Z,3.17
2022-08-25T15:20:52.662Z,3.30
2022-08-25T15:23:19.686Z,3.53
2022-08-25T15:25:49.020Z,3.30
2022-08-25T15:28:21.917Z,3.45
2022-08-25T15:30:49.333Z,3.20
2022-08-25T15:33:15.880Z,3.03
2022-08-25T15:35:43.523Z,3.40
2022-08-25T15:38:11.933Z,3.03
2022-08-25T15:40:39.624Z,3.20
2022-08-25T15:43:06.231Z,3.40
2022-08-25T15:45:35.779Z,3.25
2022-08-25T15:48:02.558Z,3.75
2022-08-25T15:50:29.953Z,3.15
2022-08-25T15:52:56.641Z,3.50
2022-08-25T15:55:23.462Z,2.83
2022-08-25T15:57:50.236Z,3.53
2022-08-25T16:00:18.324Z,3.53
2022-08-25T16:02:46.236Z,3.17
2022-08-25T16:05:16.214Z,3.38
2022-08-25T16:07:45.668Z,3.20
2022-08-25T16:10:12.584Z,3.25
2022-08-25T16:12:39.977Z,2.95
2022-08-25T16:15:09.821Z,3.20
2022-08-25T16:17:40.726Z,2.70
2022-08-25T16:20:13.626Z,3.15
2022-08-25T16:22:40.718Z,3.80
2022-08-25T16:25:07.777Z,3.40
2022-08-25T16:27:38.601Z,3.03
2022-08-25T16:30:07.985Z,3.20
2022-08-25T16:32:34.864Z,3.47
2022-08-25T16:35:02.786Z,2.85
2022-08-25T16:37:29.774Z,3.05
2022-08-25T16:39:57.343Z,2.80
2022-08-25T16:42:24.214Z,3.15
2022-08-25T16:44:55.748Z,3.38
2022-08-25T16:47:25.166Z,3.13
2022-08-25T16:49:53.706Z,3.13
2022-08-25T16:52:52.611Z,3.10
2022-08-25T16:55:19.451Z,3.45
2022-08-25T16:57:54.265Z,2.60
2022-08-25T17:00:28.527Z,3.22
2022-08-25T17:03:04.853Z,2.88
2022-08-25T17:05:33.399Z,3.10
2022-08-25T17:08:19.155Z,2.90
2022-08-25T17:10:45.730Z,2.80
2022-08-25T17:13:12.853Z,2.63
2022-08-25T17:15:46.695Z,2.70
2022-08-25T17:18:13.846Z,2.95
2022-08-25T17:20:43.287Z,2.92
2022-08-25T17:23:12.418Z,3.13
2022-08-25T17:25:42.968Z,2.65
2022-08-25T17:28:11.947Z,3.30
2022-08-25T17:30:39.263Z,2.95
2022-08-25T17:33:05.874Z,2.80
2022-08-25T17:35:32.417Z,3.08
2022-08-25T17:37:58.925Z,2.83
2022-08-25T17:40:26.542Z,2.78
2022-08-25T17:42:53.627Z,3.08
2022-08-25T17:45:20.239Z,2.95
2022-08-25T17:47:46.749Z,2.78
2022-08-25T17:50:13.444Z,3.20
2022-08-25T17:52:39.986Z,3.50
2022-08-25T17:55:08.576Z,3.35
2022-08-25T17:57:35.300Z,3.30
2022-08-25T18:00:23.387Z,3.13
2022-08-25T18:02:50.391Z,3.13
2022-08-25T18:05:19.483Z,3.55
2022-08-25T18:07:47.566Z,2.90
2022-08-25T18:10:16.462Z,3.47
2022-08-25T18:12:43.595Z,3.33
2022-08-25T18:15:12.741Z,3.10
2022-08-25T18:17:41.573Z,3.00
2022-08-25T18:20:10.337Z,3.20
2022-08-25T18:22:38.598Z,3.28
2022-08-25T18:25:07.770Z,3.40
2022-08-25T18:27:34.765Z,3.25
2022-08-25T18:30:02.268Z,3.60
2022-08-25T18:32:29.906Z,3.78
2022-08-25T18:34:57.121Z,3.75
2022-08-25T18:37:43.046Z,3.92
2022-08-25T18:40:22.965Z,3.75
2022-08-25T18:42:51.243Z,3.50
2022-08-25T18:45:19.163Z,3.58
2022-08-25T18:47:46.154Z,3.58
2022-08-25T18:50:12.698Z,3.50
2022-08-25T18:52:39.956Z,3.47
2022-08-25T18:55:07.124Z,3.25
2022-08-25T18:57:33.959Z,3.55
2022-08-25T19:00:01.615Z,4.13
2022-08-25T19:02:28.255Z,3.72
2022-08-25T19:04:54.875Z,3.22
2022-08-25T19:07:21.492Z,3.83
2022-08-25T19:09:48.077Z,3.53
2022-08-25T19:12:22.474Z,4.07
2022-08-25T19:14:49.602Z,4.38
2022-08-25T19:17:17.136Z,3.72
2022-08-25T19:19:43.780Z,3.35
2022-08-25T19:22:38.093Z,3.47
2022-08-25T19:24:57.705Z,3.67
2022-08-25T19:27:25.116Z,3.42
2022-08-25T19:29:51.876Z,3.90
2022-08-25T19:32:18.650Z,3.65
2022-08-25T19:34:47.300Z,4.05
2022-08-25T19:37:18.223Z,3.90
2022-08-25T19:39:52.909Z,3.80
2022-08-25T19:42:37.075Z,3.85
2022-08-25T19:45:11.158Z,4.18
2022-08-25T19:47:37.972Z,3.85
2022-08-25T19:50:06.864Z,4.25
2022-08-25T19:52:34.356Z,3.55
2022-08-25T19:55:02.825Z,4.40
2022-08-25T19:57:43.148Z,3.65
2022-08-25T20:00:15.158Z,3.80
2022-08-25T20:02:42.966Z,4.13
2022-08-25T20:05:12.137Z,4.90
2022-08-25T20:07:39.625Z,4.28
2022-08-25T20:10:08.560Z,4.03
2022-08-25T20:12:40.750Z,3.33
2022-08-25T20:15:08.284Z,4.75
2022-08-25T20:17:35.261Z,4.13
2022-08-25T20:20:06.029Z,4.50
2022-08-25T20:22:33.498Z,5.28
2022-08-25T20:25:14.085Z,5.20
2022-08-25T20:27:44.895Z,4.38
2022-08-25T20:30:22.148Z,4.72
2022-08-25T20:32:50.148Z,4.18
2022-08-25T20:35:17.826Z,7.03
2022-08-25T20:37:45.909Z,4.65
2022-08-25T20:40:15.573Z,4.22
2022-08-25T20:42:43.404Z,4.22
2022-08-25T20:45:10.990Z,4.90
2022-08-25T20:47:37.657Z,5.07
2022-08-25T20:50:06.975Z,4.47
2022-08-25T20:52:34.520Z,4.43
2022-08-25T20:55:01.734Z,4.45
2022-08-25T20:57:28.658Z,5.07
2022-08-25T20:59:55.463Z,5.07
2022-08-25T21:02:23.720Z,5.35
2022-08-25T21:04:50.655Z,5.15
2022-08-25T21:07:18.464Z,5.18
2022-08-25T21:09:45.313Z,4.93
2022-08-25T21:12:11.817Z,5.38
2022-08-25T21:14:40.742Z,4.38
2022-08-25T21:17:10.585Z,5.30
2022-08-25T21:19:38.749Z,4.75
2022-08-25T21:22:07.421Z,5.07
2022-08-25T21:24:34.509Z,6.35
2022-08-25T21:27:03.635Z,5.47
2022-08-25T21:29:32.845Z,5.25
2022-08-25T21:31:59.824Z,5.45
2022-08-25T21:34:29.064Z,4.43
2022-08-25T21:36:57.894Z,5.55
2022-08-25T21:39:27.422Z,5.90
2022-08-25T21:41:54.772Z,5.47
2022-08-25T21:44:22.501Z,5.53
2022-08-25T21:46:54.124Z,5.70
2022-08-25T21:49:22.051Z,5.43
2022-08-25T21:51:59.357Z,6.18
2022-08-25T21:54:28.598Z,6.22
2022-08-25T21:56:59.427Z,5.40
2022-08-25T21:59:31.722Z,5.28
2022-08-25T22:02:01.440Z,5.53
2022-08-25T22:04:29.489Z,5.18
2022-08-25T22:06:57.154Z,5.88
2022-08-25T22:09:25.376Z,4.78
2022-08-25T22:11:53.181Z,5.32
2022-08-25T22:14:23.330Z,5.10
2022-08-25T22:16:50.560Z,5.30
2022-08-25T22:19:17.327Z,5.35
2022-08-25T22:21:44.979Z,5.40
2022-08-25T22:24:11.826Z,5.45
2022-08-25T22:26:39.065Z,5.57
2022-08-25T22:29:06.607Z,5.13
2022-08-25T22:31:35.210Z,5.15
2022-08-25T22:34:03.139Z,5.80
2022-08-25T22:36:33.708Z,6.13
2022-08-25T22:39:01.113Z,6.28
2022-08-25T22:41:29.161Z,5.07
2022-08-25T22:43:56.754Z,5.55
2022-08-25T22:46:26.326Z,5.35
2022-08-25T22:48:55.940Z,5.50
2022-08-25T22:51:25.917Z,5.20
2022-08-25T22:53:53.375Z,5.00
2022-08-25T22:56:32.910Z,5.18
2022-08-25T22:59:03.109Z,5.15
2022-08-25T23:01:31.793Z,5.72
2022-08-25T23:04:00.709Z,4.75
2022-08-25T23:06:29.661Z,4.38
2022-08-25T23:08:56.619Z,4.68
2022-08-25T23:11:26.284Z,5.35
2022-08-25T23:13:57.433Z,4.53
2022-08-25T23:16:24.347Z,4.78
2022-08-25T23:18:51.170Z,5.43
2022-08-25T23:21:41.113Z,5.28
2022-08-25T23:24:13.319Z,5.00
2022-08-25T23:26:42.535Z,5.78
2022-08-25T23:29:18.639Z,4.82
2022-08-25T23:31:47.575Z,4.28
2022-08-25T23:34:15.828Z,4.25
2022-08-25T23:36:43.886Z,4.53
2022-08-25T23:39:11.408Z,4.55
2022-08-25T23:41:38.801Z,5.30
2022-08-25T23:44:06.357Z,5.05
2022-08-25T23:46:35.848Z,5.75
2022-08-25T23:49:04.225Z,6.43
2022-08-25T23:51:37.310Z,6.22
2022-08-25T23:54:07.085Z,5.78
2022-08-25T23:56:36.466Z,6.97
2022-08-25T23:59:04.499Z,5.95
